Terminal Aerodrome Forecast
Issued by NWS Charleston, WV

Current Version | Previous Version | Graphics & Text | Print | Product List | Glossary On
Versions: 1 2 3 4 5 6 7 8 9 10 11 12 13 14 15 16 17 18 19 20 21 22 23 24
225
FTUS41 KRLX 181933 AAA
TAFHTS
TAF AMD
KHTS 181933Z 1820/1918 27006KT P6SM OVC020
     FM182200 27004KT P6SM BKN020
     FM190800 VRB03KT P6SM SCT150
     FM190900 00000KT 3SM BR SCT001 SCT150=

USA.gov is the U.S. government's official web portal to all federal, state and local government web resources and services.